Time;durP1;ratioP1;P1;durP2;ratioP2;P2;SDS_P1;SDS_P2;PMS_P1;PMS_P2;Temp;Humidity;BMP_temperature;BMP_pressure;BME280_temperature;BME280_humidity;BME280_pressure;Samples;Min_cycle;Max_cycle;Signal;HPM_P1;HPM_P2
2022/05/16 00:00:56;;;;;;;12.25;10.18;;;;;;;20.02;100.00;101321.75;4880743;29;20458;-73
2022/05/16 00:03:42;;;;;;;10.88;9.77;;;;;;;20.12;100.00;101319.53;4881570;29;20363;-73
2022/05/16 00:06:28;;;;;;;13.05;10.55;;;;;;;20.41;100.00;101319.88;4881124;29;20488;-72
2022/05/16 00:09:14;;;;;;;11.27;10.05;;;;;;;20.26;100.00;101317.09;4880636;29;20434;-73
2022/05/16 00:12:00;;;;;;;15.60;10.27;;;;;;;20.22;100.00;101321.72;4879993;29;20033;-72
2022/05/16 00:14:46;;;;;;;11.98;9.88;;;;;;;20.49;100.00;101319.53;4881191;29;20060;-72
2022/05/16 00:17:32;;;;;;;13.00;10.60;;;;;;;20.31;100.00;101318.59;4880594;29;20382;-72
2022/05/16 00:20:18;;;;;;;13.63;10.27;;;;;;;20.46;100.00;101312.56;4880638;29;20029;-72
2022/05/16 00:23:04;;;;;;;11.93;10.52;;;;;;;20.32;100.00;101306.16;4880804;29;20455;-73
2022/05/16 00:25:50;;;;;;;11.98;10.73;;;;;;;20.35;100.00;101309.53;4880396;29;20104;-73
2022/05/16 00:28:35;;;;;;;11.68;10.50;;;;;;;20.54;100.00;101301.53;4867904;29;20033;-73
2022/05/16 00:31:21;;;;;;;15.57;10.80;;;;;;;20.66;100.00;101306.25;4880315;29;20123;-72
2022/05/16 00:34:07;;;;;;;13.43;11.23;;;;;;;20.58;100.00;101314.59;4880659;29;20040;-72
2022/05/16 00:36:52;;;;;;;12.65;10.50;;;;;;;20.25;100.00;101312.72;4879650;29;20037;-73
2022/05/16 00:39:38;;;;;;;14.52;11.90;;;;;;;20.75;100.00;101309.31;4880631;29;20037;-72
2022/05/16 00:42:24;;;;;;;12.60;11.30;;;;;;;20.32;100.00;101309.69;4879966;29;20025;-73
2022/05/16 00:45:13;;;;;;;15.27;11.57;;;;;;;20.30;100.00;101302.72;4880397;29;20040;-72
2022/05/16 00:47:59;;;;;;;13.85;11.65;;;;;;;20.35;100.00;101296.22;4880119;29;20387;-72
2022/05/16 00:50:45;;;;;;;14.38;11.02;;;;;;;20.61;100.00;101300.28;4868052;29;20040;-73
2022/05/16 00:53:31;;;;;;;14.40;10.45;;;;;;;20.68;100.00;101301.69;4879972;29;20037;-73
2022/05/16 00:56:17;;;;;;;13.32;11.43;;;;;;;20.53;100.00;101299.81;4867357;29;20025;-72
2022/05/16 00:59:04;;;;;;;12.20;10.90;;;;;;;20.59;100.00;101304.81;4880558;29;20117;-72
2022/05/16 01:04:55;;;;;;;14.60;11.32;;;;;;;20.74;100.00;101304.06;4881187;29;20391;-72
2022/05/16 01:07:44;;;;;;;14.35;11.32;;;;;;;20.52;100.00;101295.38;4879490;29;20040;-72
2022/05/16 01:10:29;;;;;;;13.95;11.65;;;;;;;20.57;100.00;101299.56;4867092;29;20044;-73
2022/05/16 01:13:16;;;;;;;12.80;11.50;;;;;;;20.46;100.00;101299.25;4879987;29;20029;-72
2022/05/16 01:16:03;;;;;;;15.70;11.95;;;;;;;20.49;100.00;101301.72;4879794;29;20124;-72
2022/05/16 01:18:48;;;;;;;13.25;11.73;;;;;;;20.30;100.00;101305.38;4879707;29;20530;-72
2022/05/16 01:21:39;;;;;;;12.85;11.55;;;;;;;20.27;100.00;101295.75;4867111;29;20025;-72
2022/05/16 01:24:25;;;;;;;13.48;12.05;;;;;;;20.35;100.00;101304.22;4870903;29;20127;-73
2022/05/16 01:27:11;;;;;;;16.52;12.35;;;;;;;20.35;100.00;101304.22;4883606;29;20032;-73
2022/05/16 01:29:57;;;;;;;15.32;12.02;;;;;;;20.19;100.00;101297.91;4882986;29;20083;-72
2022/05/16 01:32:43;;;;;;;14.95;12.23;;;;;;;20.24;100.00;101292.34;4871193;29;20043;-73
2022/05/16 01:35:31;;;;;;;13.23;11.80;;;;;;;20.30;100.00;101297.38;4883337;29;20028;-74
2022/05/16 01:38:26;;;;;;;12.80;11.35;;;;;;;20.25;100.00;101308.25;4883449;29;20057;-73
2022/05/16 01:41:18;;;;;;;16.05;12.20;;;;;;;20.15;100.00;101308.75;4883292;29;20335;-73
2022/05/16 01:44:04;;;;;;;19.05;12.43;;;;;;;20.13;100.00;101310.66;4883205;29;20040;-73
2022/05/16 01:46:49;;;;;;;15.15;13.07;;;;;;;19.87;100.00;101317.13;4870159;29;20025;-72
2022/05/16 01:49:35;;;;;;;13.63;12.23;;;;;;;19.94;100.00;101315.06;4883541;29;20045;-72
2022/05/16 01:52:21;;;;;;;14.93;12.50;;;;;;;19.55;100.00;101319.50;4883172;29;20423;-72
2022/05/16 01:55:08;;;;;;;14.63;12.52;;;;;;;19.58;100.00;101317.59;4882412;29;20104;-73
2022/05/16 01:57:54;;;;;;;15.40;12.73;;;;;;;19.58;100.00;101316.72;4883098;29;20060;-72
2022/05/16 02:00:40;;;;;;;15.27;12.65;;;;;;;19.23;100.00;101318.25;4882653;29;20124;-72
2022/05/16 02:03:26;;;;;;;17.63;13.30;;;;;;;19.26;100.00;101319.94;4869945;29;20036;-73
2022/05/16 02:06:12;;;;;;;17.08;13.45;;;;;;;19.13;100.00;101316.94;4883027;29;20111;-73
2022/05/16 02:08:58;;;;;;;16.35;13.57;;;;;;;19.24;100.00;101320.00;4883081;29;20047;-72
2022/05/16 02:11:43;;;;;;;16.98;13.40;;;;;;;18.97;100.00;101324.66;4882000;29;20518;-73
2022/05/16 02:14:29;;;;;;;19.38;17.30;;;;;;;18.78;100.00;101325.50;4882528;29;20096;-73
2022/05/16 02:17:15;;;;;;;20.80;18.17;;;;;;;18.78;100.00;101326.34;4870159;29;20072;-74
2022/05/16 02:20:01;;;;;;;20.02;17.13;;;;;;;18.61;100.00;101333.31;4882184;29;20040;-73
2022/05/16 02:25:51;;;;;;;20.13;17.80;;;;;;;18.61;100.00;101347.44;4883290;29;20067;-72
2022/05/16 02:28:36;;;;;;;22.92;18.08;;;;;;;18.89;100.00;101349.84;4869559;29;20029;-72
2022/05/16 02:31:22;;;;;;;21.77;18.38;;;;;;;18.54;100.00;101351.28;4881517;29;20077;-73
2022/05/16 02:34:08;;;;;;;20.40;17.27;;;;;;;18.77;100.00;101345.88;4868757;29;20100;-72
2022/05/16 02:36:54;;;;;;;20.38;17.08;;;;;;;18.46;100.00;101352.50;4882579;29;20096;-72
2022/05/16 02:39:44;;;;;;;24.88;18.95;;;;;;;18.61;100.00;101354.53;4882489;29;20486;-73
2022/05/16 02:42:30;;;;;;;22.77;17.33;;;;;;;18.13;100.00;101353.78;4881676;29;20025;-73
2022/05/16 02:45:16;;;;;;;21.13;17.90;;;;;;;18.19;100.00;101351.75;4869279;29;20032;-73
2022/05/16 02:48:02;;;;;;;24.08;17.85;;;;;;;18.47;100.00;101357.75;4881904;29;20043;-72
2022/05/16 02:50:48;;;;;;;22.02;17.67;;;;;;;18.49;100.00;101363.00;4882050;29;20043;-72
2022/05/16 02:53:34;;;;;;;22.33;17.83;;;;;;;18.39;100.00;101362.50;4881549;29;20021;-74
2022/05/16 02:56:20;;;;;;;22.65;18.27;;;;;;;18.39;100.00;101361.63;4882511;29;20025;-73
2022/05/16 02:59:05;;;;;;;24.27;19.73;;;;;;;18.62;100.00;101370.38;4882110;29;20040;-73
2022/05/16 03:01:51;;;;;;;25.45;19.45;;;;;;;18.38;100.00;101370.50;4868668;29;20127;-72
2022/05/16 03:04:37;;;;;;;21.90;18.52;;;;;;;18.03;100.00;101369.16;4881868;29;20097;-74
2022/05/16 03:07:23;;;;;;;23.30;18.38;;;;;;;18.24;100.00;101378.97;4868522;29;20446;-73
2022/05/16 03:10:11;;;;;;;25.33;18.65;;;;;;;18.36;100.00;101375.88;4882039;29;20044;-72
2022/05/16 03:12:57;;;;;;;22.48;18.58;;;;;;;18.25;100.00;101385.16;4880996;29;20036;-73
2022/05/16 03:15:45;;;;;;;25.45;18.98;;;;;;;18.42;100.00;101385.38;4881060;29;20028;-73
2022/05/16 03:18:31;;;;;;;22.95;19.05;;;;;;;18.18;100.00;101383.63;4880709;29;20057;-73
2022/05/16 03:21:17;;;;;;;23.60;18.88;;;;;;;18.20;100.00;101387.06;4882379;29;20458;-73
2022/05/16 03:24:03;;;;;;;30.42;20.98;;;;;;;18.26;100.00;101382.44;4881047;29;20032;-73
2022/05/16 03:26:49;;;;;;;25.25;19.77;;;;;;;18.41;100.00;101388.97;4868627;29;20403;-73
2022/05/16 03:29:35;;;;;;;25.65;19.85;;;;;;;18.36;100.00;101393.56;4882033;29;20033;-72
2022/05/16 03:32:21;;;;;;;26.17;19.77;;;;;;;18.39;100.00;101404.06;4881357;29;20036;-76
2022/05/16 03:35:07;;;;;;;24.60;20.92;;;;;;;18.52;100.00;101406.19;4881084;29;20037;-72
2022/05/16 03:37:53;;;;;;;29.48;21.60;;;;;;;18.50;100.00;101405.41;4881221;29;20029;-73
2022/05/16 03:40:50;;;;;;;28.90;22.27;;;;;;;18.82;100.00;101414.75;4881064;29;20068;-72
2022/05/16 03:43:37;;;;;;;28.23;21.63;;;;;;;18.46;100.00;101417.06;4881039;29;20033;-73
2022/05/16 03:46:24;;;;;;;26.15;21.38;;;;;;;18.26;100.00;101405.44;4867222;29;20032;-75
2022/05/16 03:49:10;;;;;;;25.48;21.02;;;;;;;18.84;100.00;101404.91;4880654;29;20541;-73
2022/05/16 03:51:56;;;;;;;27.70;21.05;;;;;;;18.68;100.00;101403.78;4881156;29;20120;-73
2022/05/16 03:54:42;;;;;;;24.85;19.58;;;;;;;18.43;100.00;101410.97;4880775;29;20072;-74
2022/05/16 03:57:27;;;;;;;25.88;19.38;;;;;;;18.68;100.00;101414.41;4868047;29;20481;-72
2022/05/16 04:00:15;;;;;;;23.75;19.08;;;;;;;18.87;100.00;101418.94;4868444;29;20347;-73
2022/05/16 04:03:02;;;;;;;22.33;17.00;;;;;;;18.65;100.00;101415.41;4881235;29;20033;-72
2022/05/16 04:05:49;;;;;;;20.88;16.45;;;;;;;19.05;100.00;101417.34;4880389;29;20037;-73
2022/05/16 04:08:35;;;;;;;20.05;15.38;;;;;;;19.15;100.00;101413.34;4880903;29;20044;-74
2022/05/16 04:11:21;;;;;;;19.80;16.20;;;;;;;19.21;100.00;101421.94;4868333;29;20065;-73
2022/05/16 04:14:08;;;;;;;18.02;14.75;;;;;;;19.35;100.00;101417.84;4867676;29;20041;-73
2022/05/16 04:16:54;;;;;;;17.02;14.13;;;;;;;19.64;100.00;101407.72;4880373;29;20052;-72
2022/05/16 04:19:39;;;;;;;18.88;14.13;;;;;;;19.59;100.00;101417.69;4879943;29;20466;-73
2022/05/16 04:22:25;;;;;;;16.98;13.57;;;;;;;19.51;100.00;101419.81;4868345;29;20025;-73
2022/05/16 04:25:18;;;;;;;19.13;13.20;;;;;;;19.64;100.00;101421.00;4880398;29;20087;-73
2022/05/16 04:28:07;;;;;;;17.75;13.18;;;;;;;19.75;100.00;101424.06;4868001;29;20101;-73
2022/05/16 04:30:52;;;;;;;17.45;12.98;;;;;;;19.93;100.00;101428.56;4867835;29;20028;-73
2022/05/16 04:33:38;;;;;;;20.13;13.85;;;;;;;20.23;100.00;101434.34;4880430;29;20029;-73
2022/05/16 04:36:24;;;;;;;23.67;13.38;;;;;;;20.25;100.00;101432.47;4879621;29;20088;-72
2022/05/16 04:39:10;;;;;;;21.05;13.18;;;;;;;20.14;100.00;101432.97;4867755;29;20040;-72
2022/05/16 04:45:00;;;;;;;24.80;13.00;;;;;;;20.81;100.00;101430.69;4881160;29;20131;-73
2022/05/16 04:47:50;;;;;;;19.48;13.27;;;;;;;20.93;100.00;101422.13;4880314;29;20474;-73
2022/05/16 04:50:36;;;;;;;18.42;13.60;;;;;;;20.64;100.00;101425.28;4879751;29;20045;-73
2022/05/16 04:53:22;;;;;;;16.25;13.27;;;;;;;20.79;100.00;101430.75;4880190;29;20120;-74
2022/05/16 04:56:08;;;;;;;17.63;13.48;;;;;;;20.99;100.00;101430.69;4879790;29;20033;-72
2022/05/16 04:58:54;;;;;;;16.48;11.95;;;;;;;21.43;100.00;101437.34;4883570;29;20363;-73
2022/05/16 05:01:41;;;;;;;21.38;13.75;;;;;;;21.25;100.00;101440.91;4883868;29;20029;-73
2022/05/16 05:04:27;;;;;;;19.45;13.65;;;;;;;21.65;100.00;101443.28;4884049;29;20051;-73
2022/05/16 05:07:12;;;;;;;18.23;14.70;;;;;;;21.88;100.00;101442.13;4884018;29;20332;-72
2022/05/16 05:16:20;;;;;;;15.82;14.15;;;;;;;21.21;100.00;101447.31;4878910;29;20033;-73
2022/05/16 05:19:06;;;;;;;18.23;14.23;;;;;;;21.73;100.00;101451.78;4883541;29;20131;-73
2022/05/16 05:21:52;;;;;;;18.55;14.65;;;;;;;21.69;100.00;101450.19;4883176;29;20032;-73
2022/05/16 05:24:38;;;;;;;19.70;14.25;;;;;;;21.49;100.00;101450.34;4870395;29;20514;-72
2022/05/16 05:27:23;;;;;;;18.40;14.02;;;;;;;21.32;100.00;101455.66;4883562;29;20036;-73
2022/05/16 05:30:13;;;;;;;19.85;14.13;;;;;;;21.66;100.00;101453.00;4883348;29;20025;-72
2022/05/16 05:32:59;;;;;;;19.25;14.68;;;;;;;21.34;100.00;101447.59;4870219;29;20043;-73
2022/05/16 05:35:44;;;;;;;21.35;15.73;;;;;;;21.90;100.00;101445.59;4883117;29;20033;-73
2022/05/16 05:38:30;;;;;;;22.10;14.18;;;;;;;22.26;100.00;101447.13;4883488;29;20063;-73
2022/05/16 05:41:16;;;;;;;20.92;14.65;;;;;;;22.49;100.00;101454.81;4870656;29;20033;-72
2022/05/16 05:44:02;;;;;;;18.15;15.38;;;;;;;22.27;100.00;101451.53;4883370;29;20025;-72
2022/05/16 05:46:48;;;;;;;20.77;15.18;;;;;;;22.46;100.00;101451.38;4882828;29;20139;-73
2022/05/16 05:49:34;;;;;;;16.95;13.80;;;;;;;22.65;100.00;101453.00;4882875;29;20040;-71
2022/05/16 05:52:21;;;;;;;16.63;13.73;;;;;;;22.74;100.00;101457.84;4857551;29;20052;-73
2022/05/16 05:55:07;;;;;;;19.40;14.02;;;;;;;22.96;100.00;101454.81;4882295;29;20251;-73
2022/05/16 05:58:05;;;;;;;14.70;12.80;;;;;;;23.30;100.00;101455.50;4882961;29;20029;-73
2022/05/16 06:00:51;;;;;;;17.33;13.27;;;;;;;22.45;100.00;101452.34;4869532;29;20092;-72
2022/05/16 06:03:36;;;;;;;16.98;13.00;;;;;;;22.81;100.00;101464.56;4882413;29;20037;-72
2022/05/16 06:06:22;;;;;;;16.02;12.05;;;;;;;22.97;100.00;101464.56;4882774;29;20032;-72
2022/05/16 06:09:08;;;;;;;13.50;12.13;;;;;;;22.57;100.00;101459.72;4881785;29;20044;-73
2022/05/16 06:11:59;;;;;;;14.40;11.90;;;;;;;22.96;100.00;101468.19;4882195;29;20053;-73
2022/05/16 06:14:44;;;;;;;17.75;12.55;;;;;;;22.65;100.00;101469.03;4882960;29;20044;-72
2022/05/16 06:17:30;;;;;;;15.70;11.90;;;;;;;23.19;100.00;101463.25;4882575;29;20367;-73
2022/05/16 06:20:16;;;;;;;16.90;12.73;;;;;;;23.11;100.00;101464.66;4882340;29;20048;-73
2022/05/16 06:23:02;;;;;;;15.60;13.70;;;;;;;23.44;100.00;101457.38;4869528;29;20058;-73
2022/05/16 06:25:48;;;;;;;16.00;12.38;;;;;;;23.78;100.00;101459.75;4882343;29;20041;-72
2022/05/16 06:28:37;;;;;;;13.82;11.23;;;;;;;23.24;100.00;101463.88;4881939;29;20097;-72
2022/05/16 06:31:23;;;;;;;13.70;11.55;;;;;;;23.50;100.00;101456.16;4881690;29;20044;-72
2022/05/16 06:34:09;;;;;;;14.30;10.73;;;;;;;23.66;100.00;101465.00;4882062;29;20033;-78
2022/05/16 06:36:55;;;;;;;15.77;11.07;;;;;;;24.11;100.00;101465.75;4881497;29;20036;-74
2022/05/16 06:39:41;;;;;;;14.32;12.30;;;;;;;23.38;100.00;101458.59;4882165;29;20029;-74
2022/05/16 06:42:26;;;;;;;14.52;11.20;;;;;;;23.79;100.00;101450.75;4882077;29;20045;-74
2022/05/16 06:45:14;;;;;;;15.38;11.35;;;;;;;24.05;100.00;101459.94;4882835;29;20359;-74
2022/05/16 06:48:01;;;;;;;14.52;9.50;;;;;;;23.89;100.00;101457.31;4869550;29;20029;-74
2022/05/16 06:50:52;;;;;;;15.05;9.32;;;;;;;23.93;100.00;101456.19;4869530;29;20047;-74
2022/05/16 06:53:37;;;;;;;14.85;11.48;;;;;;;24.43;100.00;101456.59;4882091;29;20124;-75
2022/05/16 06:56:23;;;;;;;11.60;10.40;;;;;;;24.12;100.00;101458.59;4882610;29;20033;-74
2022/05/16 06:59:09;;;;;;;14.25;10.73;;;;;;;24.66;100.00;101456.03;4882345;29;20098;-75
2022/05/16 07:01:55;;;;;;;15.93;10.75;;;;;;;24.48;100.00;101456.31;4881280;29;20035;-74
2022/05/16 07:04:42;;;;;;;16.88;11.80;;;;;;;24.21;100.00;101458.03;4882073;29;20518;-73
2022/05/16 07:07:29;;;;;;;18.05;13.07;;;;;;;24.60;100.00;101460.91;4880944;29;20037;-73
2022/05/16 07:10:14;;;;;;;14.25;10.20;;;;;;;23.99;100.00;101458.47;4869511;29;20367;-74
2022/05/16 07:13:00;;;;;;;15.57;11.50;;;;;;;24.51;100.00;101456.13;4881815;29;20025;-74
2022/05/16 07:15:46;;;;;;;20.52;13.00;;;;;;;24.49;100.00;101461.56;4882144;29;20059;-74
2022/05/16 07:18:32;;;;;;;19.98;11.55;;;;;;;24.57;100.00;101466.44;4881163;29;20049;-73
2022/05/16 07:21:18;;;;;;;16.77;11.23;;;;;;;25.23;100.00;101462.13;4881074;29;20029;-74
2022/05/16 07:24:04;;;;;;;13.55;9.77;;;;;;;24.82;100.00;101464.81;4881284;29;20040;-73
2022/05/16 07:29:54;;;;;;;10.00;8.50;;;;;;;24.94;100.00;101471.19;4881580;29;20453;-74
2022/05/16 07:32:43;;;;;;;9.65;7.38;;;;;;;25.36;100.00;101476.47;4881796;29;20055;-73
2022/05/16 07:35:31;;;;;;;10.65;6.82;;;;;;;25.23;100.00;101467.50;4881091;29;20498;-73
2022/05/16 07:38:18;;;;;;;8.32;6.60;;;;;;;25.70;100.00;101474.09;4881219;29;20108;-73
2022/05/16 07:41:04;;;;;;;9.05;7.32;;;;;;;26.11;100.00;101471.25;4881669;29;20434;-73
2022/05/16 07:43:50;;;;;;;11.50;8.68;;;;;;;26.01;100.00;101463.00;4880111;29;20025;-73
2022/05/16 07:46:35;;;;;;;10.48;7.72;;;;;;;25.86;100.00;101477.44;4868382;29;20116;-74
2022/05/16 07:49:22;;;;;;;11.68;8.25;;;;;;;26.03;100.00;101463.75;4880695;29;20071;-74
2022/05/16 07:52:09;;;;;;;9.30;8.00;;;;;;;26.24;100.00;101464.91;4856348;29;20033;-73
2022/05/16 07:54:55;;;;;;;9.45;7.60;;;;;;;25.99;100.00;101475.66;4868182;29;20039;-74
2022/05/16 07:57:41;;;;;;;11.00;7.07;;;;;;;26.33;98.95;101471.50;4868060;29;20443;-74
2022/05/16 08:00:45;;;;;;;9.00;6.90;;;;;;;27.03;96.12;101489.66;4880695;29;20048;-74
2022/05/16 08:03:31;;;;;;;9.00;8.10;;;;;;;26.45;97.05;101479.53;4867566;29;20029;-73
2022/05/16 08:06:17;;;;;;;14.48;8.05;;;;;;;26.84;97.47;101478.53;4881007;29;20043;-73
2022/05/16 08:12:07;;;;;;;9.57;7.40;;;;;;;26.86;97.98;101485.53;4881077;29;20458;-75
2022/05/16 08:14:53;;;;;;;15.07;7.78;;;;;;;27.26;96.79;101484.34;4880864;29;20037;-75
2022/05/16 08:17:39;;;;;;;9.32;7.07;;;;;;;28.19;89.99;101475.34;4880308;29;20045;-74
2022/05/16 08:20:26;;;;;;;12.45;7.13;;;;;;;27.19;91.49;101482.16;4880635;29;20117;-74
2022/05/16 08:23:16;;;;;;;11.57;6.88;;;;;;;27.62;89.37;101480.69;4880515;29;20045;-74
2022/05/16 08:26:04;;;;;;;9.20;7.30;;;;;;;27.62;85.10;101485.22;4880989;29;20040;-75
2022/05/16 08:28:49;;;;;;;9.75;6.90;;;;;;;27.79;83.74;101493.72;4867833;29;20044;-73
2022/05/16 08:31:35;;;;;;;12.02;7.10;;;;;;;28.02;81.38;101475.81;4866554;29;20374;-74
2022/05/16 08:34:22;;;;;;;8.05;7.20;;;;;;;28.68;79.06;101481.31;4867561;29;20029;-74
2022/05/16 08:40:14;;;;;;;9.60;7.45;;;;;;;28.43;79.39;101470.75;4881046;29;20036;-74
2022/05/16 08:43:08;;;;;;;10.23;7.20;;;;;;;28.73;78.27;101471.84;4867497;29;20096;-75
2022/05/16 08:46:03;;;;;;;13.05;7.32;;;;;;;29.32;72.03;101478.63;4880774;29;20044;-74
2022/05/16 08:48:55;;;;;;;10.80;6.95;;;;;;;28.99;72.70;101473.28;4880014;29;20084;-72
2022/05/16 08:51:46;;;;;;;9.75;7.47;;;;;;;28.69;70.90;101480.31;4870131;29;20060;-74
2022/05/16 08:54:44;;;;;;;8.57;6.57;;;;;;;29.39;71.73;101476.28;4859735;29;20535;-73
2022/05/16 08:57:35;;;;;;;11.07;7.38;;;;;;;29.70;68.78;101473.56;4872762;29;20045;-71
2022/05/16 09:00:30;;;;;;;14.25;7.57;;;;;;;28.93;70.91;101467.53;4869901;29;20048;-73
2022/05/16 09:03:21;;;;;;;21.25;10.00;;;;;;;28.16;76.31;101467.53;4871336;29;20033;-73
2022/05/16 09:06:16;;;;;;;11.95;7.68;;;;;;;28.31;75.25;101469.00;4872196;29;20079;-74
2022/05/16 09:09:13;;;;;;;9.32;7.43;;;;;;;27.69;79.94;101473.00;4872361;29;20358;-72
2022/05/16 09:11:59;;;;;;;9.48;7.95;;;;;;;27.70;81.66;101470.22;4871932;29;20124;-73
2022/05/16 09:14:54;;;;;;;13.02;8.02;;;;;;;28.29;77.63;101463.72;4858074;29;20048;-73
2022/05/16 09:18:01;;;;;;;12.82;7.20;;;;;;;28.08;74.67;101457.34;4872111;29;20049;-72
2022/05/16 09:20:50;;;;;;;7.65;6.53;;;;;;;28.00;76.76;101456.25;4869260;29;20041;-73
2022/05/16 09:24:20;;;;;;;12.65;8.43;;;;;;;27.13;84.01;101450.34;4872190;29;20029;-72
2022/05/16 09:28:34;;;;;;;16.15;8.10;;;;;;;28.02;78.20;101448.88;4799609;29;20046;-73
2022/05/16 09:30:27;;;;;;;13.27;8.40;;;;;;;28.20;74.90;101442.91;4869586;29;20100;-73
2022/05/16 09:33:20;;;;;;;9.98;7.85;;;;;;;28.65;73.40;101438.41;4871508;29;20081;-73
2022/05/16 09:36:12;;;;;;;7.65;6.90;;;;;;;29.36;70.48;101444.97;4871432;29;20040;-73
2022/05/16 09:38:58;;;;;;;10.93;7.60;;;;;;;29.21;72.29;101440.03;4870104;29;20137;-73
2022/05/16 09:41:55;;;;;;;12.23;9.93;;;;;;;28.60;76.85;101438.75;4869644;29;20029;-74
2022/05/16 09:44:47;;;;;;;11.52;7.53;;;;;;;28.99;70.90;101431.94;4874388;29;20097;-73
2022/05/16 09:47:43;;;;;;;14.05;8.93;;;;;;;28.59;73.31;101428.97;4875641;29;20116;-74
2022/05/16 09:50:29;;;;;;;12.95;8.75;;;;;;;28.20;74.09;101428.59;4873082;29;20348;-72
2022/05/16 09:53:15;;;;;;;11.88;6.68;;;;;;;28.35;71.75;101430.03;4862061;29;20031;-73
2022/05/16 09:56:24;;;;;;;8.40;5.03;;;;;;;28.87;61.77;101427.56;4863705;29;20767;-73
2022/05/16 09:59:13;;;;;;;4.38;3.97;;;;;;;28.55;55.55;101418.53;4874007;29;20501;-73
2022/05/16 10:02:14;;;;;;;8.30;4.80;;;;;;;28.76;56.84;101422.22;4876195;29;20033;-73
2022/05/16 10:05:19;;;;;;;7.15;4.13;;;;;;;28.74;55.71;101414.25;4875518;29;20041;-74
2022/05/16 10:08:14;;;;;;;5.32;4.20;;;;;;;29.16;55.61;101418.81;4876311;29;20062;-73
2022/05/16 10:11:04;;;;;;;7.07;4.45;;;;;;;28.89;52.49;101418.34;4873175;29;20116;-74
2022/05/16 10:13:51;;;;;;;7.90;4.65;;;;;;;28.48;55.12;101407.41;4874594;29;20032;-73
2022/05/16 10:16:42;;;;;;;6.47;4.57;;;;;;;28.79;56.34;101406.63;4874295;29;20124;-73
2022/05/16 10:19:39;;;;;;;6.18;4.85;;;;;;;28.66;56.34;101392.44;4874314;29;20482;-73
2022/05/16 10:22:45;;;;;;;5.68;4.38;;;;;;;28.74;55.76;101389.97;4849314;29;20039;-74
2022/05/16 10:25:44;;;;;;;7.05;4.72;;;;;;;27.97;58.31;101381.91;4874770;29;20072;-73
2022/05/16 10:28:52;;;;;;;4.90;4.35;;;;;;;28.34;56.33;101382.50;4875216;29;20072;-74
2022/05/16 10:35:18;;;;;;;8.68;5.65;;;;;;;28.09;59.38;101374.66;4875067;29;20025;-73
2022/05/16 10:38:20;;;;;;;10.93;5.00;;;;;;;28.68;58.16;101379.66;4875235;29;20040;-74
2022/05/16 10:41:19;;;;;;;5.68;5.00;;;;;;;28.85;56.32;101372.88;4872260;29;20041;-73
2022/05/16 10:44:31;;;;;;;5.70;5.10;;;;;;;28.69;58.40;101362.47;4861723;29;20029;-74
2022/05/16 10:47:46;;;;;;;7.55;5.53;;;;;;;28.80;59.63;101354.38;4874796;29;20036;-73
2022/05/16 10:51:08;;;;;;;7.05;6.10;;;;;;;28.94;60.23;101343.28;4873095;29;20099;-73
2022/05/16 10:54:09;;;;;;;6.60;5.30;;;;;;;28.85;61.73;101345.91;4860510;29;20041;-74
2022/05/16 10:57:10;;;;;;;7.32;5.07;;;;;;;29.07;61.06;101340.44;4873754;29;20132;-73
2022/05/16 11:00:06;;;;;;;10.45;5.90;;;;;;;29.20;60.89;101350.06;4872131;29;20168;-72
2022/05/16 11:03:27;;;;;;;8.88;5.32;;;;;;;29.84;55.95;101346.25;4861847;29;20037;-75
2022/05/16 11:06:47;;;;;;;7.78;5.85;;;;;;;29.53;55.37;101336.38;4872343;29;20033;-75
2022/05/16 11:09:54;;;;;;;6.30;5.70;;;;;;;30.17;53.30;101327.09;4872420;29;20041;-74
2022/05/16 11:12:48;;;;;;;8.25;5.40;;;;;;;29.44;54.49;101322.81;4860390;29;20029;-73
2022/05/16 11:15:48;;;;;;;6.97;4.50;;;;;;;29.33;53.57;101323.72;4874296;29;20115;-73
2022/05/16 11:18:56;;;;;;;6.68;5.10;;;;;;;29.57;53.66;101323.47;4873945;29;20068;-73
2022/05/16 11:22:08;;;;;;;9.20;5.40;;;;;;;28.93;55.00;101322.66;4871182;29;20039;-73
2022/05/16 11:25:17;;;;;;;9.23;5.57;;;;;;;28.19;59.20;101311.81;4872187;29;20033;-74
2022/05/16 11:28:20;;;;;;;7.40;6.18;;;;;;;28.59;57.70;101314.81;4874079;29;20600;-74
2022/05/16 11:31:17;;;;;;;6.13;5.53;;;;;;;28.78;58.45;101313.19;4859776;29;20450;-74
2022/05/16 11:34:08;;;;;;;7.97;5.75;;;;;;;28.48;58.28;101314.88;4874580;29;20045;-73
2022/05/16 11:37:13;;;;;;;8.57;6.13;;;;;;;28.10;59.02;101307.19;4859939;29;20033;-75
2022/05/16 11:40:09;;;;;;;13.70;6.05;;;;;;;28.18;60.34;101307.41;4871829;29;20466;-73
2022/05/16 11:43:10;;;;;;;17.98;6.78;;;;;;;27.99;60.85;101307.19;4873362;29;20033;-74
2022/05/16 11:46:26;;;;;;;11.65;7.05;;;;;;;28.53;60.05;101302.69;4873263;29;20040;-74
2022/05/16 11:49:56;;;;;;;12.50;7.22;;;;;;;28.59;59.25;101299.50;4873521;29;20029;-73
2022/05/16 11:52:51;;;;;;;6.60;5.30;;;;;;;28.57;58.25;101290.69;4864762;29;20111;-73
2022/05/16 12:02:08;;;;;;;6.63;5.75;;;;;;;28.88;56.85;101286.25;4872113;29;20025;-75
2022/05/16 12:05:11;;;;;;;7.47;5.90;;;;;;;28.97;58.09;101286.34;4873737;29;20041;-74
2022/05/16 12:08:12;;;;;;;8.95;6.95;;;;;;;28.76;64.07;101288.16;4859082;29;20041;-75
2022/05/16 12:11:04;;;;;;;8.95;6.90;;;;;;;28.94;64.56;101283.06;4870225;29;20033;-75
2022/05/16 12:14:05;;;;;;;7.78;5.93;;;;;;;28.75;60.70;101281.06;4874088;29;20406;-73
2022/05/16 12:17:08;;;;;;;8.73;5.68;;;;;;;29.38;58.89;101272.91;4872640;29;20053;-72
2022/05/16 12:19:54;;;;;;;7.65;4.97;;;;;;;29.51;56.22;101269.97;4870926;29;20041;-75
2022/05/16 12:22:39;;;;;;;7.78;5.63;;;;;;;29.85;55.23;101261.50;4872861;29;20040;-74
2022/05/16 12:25:26;;;;;;;6.18;5.05;;;;;;;29.72;54.63;101260.00;4872153;29;20505;-73
2022/05/16 12:28:12;;;;;;;8.15;6.68;;;;;;;29.57;56.10;101259.53;4873282;29;20048;-73
2022/05/16 12:30:59;;;;;;;9.65;5.70;;;;;;;29.90;54.90;101253.81;4871452;29;20077;-73
2022/05/16 12:33:45;;;;;;;7.35;6.32;;;;;;;30.00;51.52;101251.16;4872621;29;20075;-72
2022/05/16 12:36:31;;;;;;;8.80;6.68;;;;;;;29.49;52.40;101245.81;4872649;29;20088;-73
2022/05/16 12:39:38;;;;;;;6.20;5.20;;;;;;;29.67;49.75;101244.22;4872913;29;20041;-73
2022/05/16 12:42:51;;;;;;;7.95;5.38;;;;;;;30.42;48.22;101231.91;4872546;29;20071;-74
2022/05/16 12:46:04;;;;;;;8.90;6.30;;;;;;;29.81;56.63;101234.91;4873083;29;20101;-73
2022/05/16 12:49:18;;;;;;;7.10;6.40;;;;;;;28.46;63.12;101228.72;4872164;29;20558;-73
2022/05/16 12:52:31;;;;;;;10.32;6.70;;;;;;;28.06;67.26;101215.94;4872748;29;20123;-73
2022/05/16 12:55:49;;;;;;;13.50;6.75;;;;;;;28.07;69.65;101221.19;4872383;29;20060;-73
2022/05/16 12:58:48;;;;;;;11.68;7.43;;;;;;;28.05;69.19;101216.91;4853760;29;20128;-73
2022/05/16 13:01:48;;;;;;;9.10;6.45;;;;;;;28.42;66.79;101207.53;4870153;29;20419;-74
2022/05/16 13:05:10;;;;;;;10.23;7.35;;;;;;;28.68;64.60;101204.34;4872428;29;20474;-74
2022/05/16 13:08:10;;;;;;;8.13;6.70;;;;;;;28.61;63.02;101199.59;4871677;29;20033;-73
2022/05/16 13:11:15;;;;;;;14.77;6.57;;;;;;;29.08;62.52;101199.97;4870577;29;20120;-73
2022/05/16 13:14:12;;;;;;;8.07;6.40;;;;;;;28.97;63.21;101200.00;4873093;29;20079;-72
2022/05/16 13:17:08;;;;;;;8.57;6.70;;;;;;;29.44;62.94;101202.16;4872626;29;20068;-73
2022/05/16 13:19:55;;;;;;;13.30;6.70;;;;;;;29.18;64.07;101195.50;4873627;29;20124;-73
2022/05/16 13:22:43;;;;;;;11.65;7.05;;;;;;;29.50;64.40;101203.47;4876404;29;20344;-74
2022/05/16 13:25:30;;;;;;;9.00;7.03;;;;;;;29.72;61.21;101196.03;4876389;29;20120;-74
2022/05/16 13:31:56;;;;;;;7.82;6.72;;;;;;;30.34;57.58;101193.91;4873703;29;20044;-73
2022/05/16 13:34:36;;;;;;;9.75;6.43;;;;;;;29.41;58.61;101196.19;4876465;29;20029;-74